WetterOnline ( https://www.wetteronline.de )

Wetter aktuell Utarp

Aktuelles Wetter: Emden (5m)

6-stündlich | Neueste Meldungen
Ortszeit Temperatur Wetter
Fr, 03.02. 1:00 8.5° C bedeckt
Do, 02.02. 19:00 6.0° C leichter Regen
Do, 02.02. 13:00 7.2° C bedeckt
Do, 02.02. 7:00 4.9° C bedeckt
Do, 02.02. 1:00 6.0° C wolkig
Mi, 01.02. 19:00 6.4° C bewölkt
Mi, 01.02. 13:00 3.7° C Sprühregen
Mi, 01.02. 7:00 5.9° C bewölkt
Ortszeit Temperatur Wetter
Fr, 03.02. 4:00 8.6° C bewölkt
Fr, 03.02. 3:50 8.6° C bewölkt
Fr, 03.02. 3:40 8.6° C bewölkt
Fr, 03.02. 3:30 8.6° C Sprühregen
Fr, 03.02. 3:20 8.6° C Sprühregen
Fr, 03.02. 3:10 8.5° C bedeckt
Fr, 03.02. 3:00 8.6° C bedeckt
Fr, 03.02. 2:30 8.5° C bedeckt
Fr, 03.02. 2:00 8.5° C bewölkt
Fr, 03.02. 1:30 8.5° C bedeckt
Fr, 03.02. 1:00 8.5° C bedeckt
Fr, 03.02. 0:30 8.5° C bedeckt
Ortszeit Relative Feuchte Sichtweite
Fr, 03.02. 1:00 83% 50 km
Do, 02.02. 19:00 97% 3.3 km
Do, 02.02. 13:00 87% 30 km
Do, 02.02. 7:00 92% 12 km
Do, 02.02. 1:00 78% 20 km
Mi, 01.02. 19:00 74% 26 km
Mi, 01.02. 13:00 89% 35 km
Mi, 01.02. 7:00 85% 18 km
Ortszeit Relative Feuchte Sichtweite
Fr, 03.02. 4:00 80% 50 km
Fr, 03.02. 3:50 80% -
Fr, 03.02. 3:40 80% -
Fr, 03.02. 3:30 81% 45 km
Fr, 03.02. 3:20 81% -
Fr, 03.02. 3:10 81% -
Fr, 03.02. 3:00 81% 65 km
Fr, 03.02. 2:30 81% 50 km
Fr, 03.02. 2:00 81% 45 km
Fr, 03.02. 1:30 83% 55 km
Fr, 03.02. 1:00 83% 50 km
Fr, 03.02. 0:30 84% -
Ortszeit Niederschlagsmenge Niederschlagsart
Fr, 03.02. 1:00 4 l/m2 in 6 Std. Regen
Do, 02.02. 19:00 3 l/m2 in 12 Std. Regen
Do, 02.02. 13:00 0.0 l/m2 in 6 Std. -
Do, 02.02. 7:00 0.1 l/m2 in 12 Std. Regen
Do, 02.02. 1:00 0.1 l/m2 in 6 Std. Regen
Mi, 01.02. 19:00 3 l/m2 in 12 Std. Regen
Mi, 01.02. 13:00 3 l/m2 in 6 Std. Regen
Mi, 01.02. 7:00 2 l/m2 in 12 Std. Regen
Ortszeit Niederschlagsmenge Niederschlagsart
Fr, 03.02. 4:00 <0.05 l/m2 in 1 Std. Sprühregen
Fr, 03.02. 3:50 keine Meldung -
Fr, 03.02. 3:40 keine Meldung -
Fr, 03.02. 3:30 <0.05 l/m2 in 30 Min -
Fr, 03.02. 3:20 keine Meldung -
Fr, 03.02. 3:10 keine Meldung -
Fr, 03.02. 3:00 0.0 l/m2 in 1 Std. -
Fr, 03.02. 2:30 0.0 l/m2 in 30 Min -
Fr, 03.02. 2:00 0.0 l/m2 in 1 Std. -
Fr, 03.02. 1:30 0.0 l/m2 in 30 Min -
Fr, 03.02. 1:00 0.0 l/m2 in 1 Std. Regen
Fr, 03.02. 0:30 keine Meldung -
Ortszeit Stärke Spitze Richtung
km/h Bft. km/h Grad Sektor
Fr, 03.02. 1:00 22 4 41 250° W
Do, 02.02. 19:00 13 3 24 190° S
Do, 02.02. 13:00 13 3 24 270° W
Do, 02.02. 7:00 11 2 41 270° W
Do, 02.02. 1:00 24 4 59 280° W
Mi, 01.02. 19:00 31 5 59 280° W
Mi, 01.02. 13:00 33 5 96 280° W
Mi, 01.02. 7:00 37 5 72 270° W
Ortszeit Stärke Spitze Richtung
km/h Bft. km/h Grad Sektor
Fr, 03.02. 4:00 26 4 46 250° W
Fr, 03.02. 3:50 26 4 - 250° W
Fr, 03.02. 3:40 28 4 - 250° W
Fr, 03.02. 3:30 29 5 47 250° W
Fr, 03.02. 3:20 29 5 - 250° W
Fr, 03.02. 3:10 30 5 - 260° W
Fr, 03.02. 3:00 31 5 48 250° W
Fr, 03.02. 2:30 28 4 44 250° W
Fr, 03.02. 2:00 28 4 44 250° W
Fr, 03.02. 1:30 26 4 44 250° W
Fr, 03.02. 1:00 22 4 41 250° W
Fr, 03.02. 0:30 24 4 - 250° W
Ortszeit Untergrenze Bedeckung Gattung
total tief tief mittel hoch
Fr, 03.02. 1:00 1050 m 8/8 8/8 - - -
Do, 02.02. 19:00 60 m 7/8 7/8 - - -
Do, 02.02. 13:00 270 m 8/8 8/8 - - -
Do, 02.02. 7:00 330 m 8/8 8/8 - - -
Do, 02.02. 1:00 1080 m 5/8 5/8 - - -
Mi, 01.02. 19:00 1050 m 7/8 7/8 - - -
Mi, 01.02. 13:00 390 m 8/8 8/8 - - -
Mi, 01.02. 7:00 600 m 7/8 7/8 - - -
Ortszeit Bedeckungsgrad in Achtel und Wolkenuntergrenze
Fr, 03.02. 4:00 7(1110m) 7(1410m)
Fr, 03.02. 3:50 7(1110m) 7(1410m)
Fr, 03.02. 3:40 7
Fr, 03.02. 3:30 8(1140m)
Fr, 03.02. 3:20 8(1140m)
Fr, 03.02. 3:10 8
Fr, 03.02. 3:00 8(1350m)
Fr, 03.02. 2:30 2(1110m) 8(1410m)
Fr, 03.02. 2:00 7(1290m)
Fr, 03.02. 1:30 8(1290m)
Fr, 03.02. 1:00 3(1050m) 8(1320m)
Fr, 03.02. 0:30 8
Ortszeit Luftdruck NN (hPa) Tendenz (hPa in 3 Std.)
Fr, 03.02. 1:00 1019 - 0,8
Do, 02.02. 19:00 1021 - 0,1
Do, 02.02. 13:00 1021 + 1,6
Do, 02.02. 7:00 1018 + 0,9
Do, 02.02. 1:00 1016 + 1,5
Mi, 01.02. 19:00 1013 + 1,8
Mi, 01.02. 13:00 1011 - 0,9
Mi, 01.02. 7:00 1011 - 0,9
Ortszeit Luftdruck NN (hPa) Tendenz (hPa in 3 Std.)
Fr, 03.02. 4:00 1018 - 1,4
Fr, 03.02. 3:50 1018 keine Meldung
Fr, 03.02. 3:40 1018 keine Meldung
Fr, 03.02. 3:30 1018 - 0,5
Fr, 03.02. 3:20 1018 keine Meldung
Fr, 03.02. 3:10 1018 keine Meldung
Fr, 03.02. 3:00 1018 - 0,6
Fr, 03.02. 2:30 1019 - 0,8
Fr, 03.02. 2:00 1019 - 1,1
Fr, 03.02. 1:30 1019 - 0,5
Fr, 03.02. 1:00 1019 - 0,8
Fr, 03.02. 0:30 1019 keine Meldung
Ortszeit Schneehöhe (cm)
Fr, 03.02. 1:00 0
Do, 02.02. 19:00 0
Do, 02.02. 13:00 0
Do, 02.02. 7:00 0
Do, 02.02. 1:00 0
Mi, 01.02. 19:00 0
Mi, 01.02. 13:00 0
Mi, 01.02. 7:00 0
Ortszeit Schneehöhe (cm)
Fr, 03.02. 4:00 0
Fr, 03.02. 3:50 0
Fr, 03.02. 3:40 0
Fr, 03.02. 3:30 0
Fr, 03.02. 3:20 0
Fr, 03.02. 3:10 0
Fr, 03.02. 3:00 0
Fr, 03.02. 2:30 0
Fr, 03.02. 2:00 0
Fr, 03.02. 1:30 0
Fr, 03.02. 1:00 0
Fr, 03.02. 0:30 0
Link zu dieser Seite / Seite empfehlen

Das Wetter in ...